sensor_id;sensor_type;location;lat;lon;timestamp;P1;durP1;ratioP1;P2;durP2;ratioP2
11935;SDS011;6027;48.576;9.180;2023-04-25T00:02:08;4.85;;;3.13;;
11935;SDS011;6027;48.576;9.180;2023-04-25T00:04:34;3.92;;;2.88;;
11935;SDS011;6027;48.576;9.180;2023-04-25T00:06:59;2.80;;;2.58;;
11935;SDS011;6027;48.576;9.180;2023-04-25T00:09:28;4.28;;;2.33;;
11935;SDS011;6027;48.576;9.180;2023-04-25T00:11:54;2.83;;;2.63;;
11935;SDS011;6027;48.576;9.180;2023-04-25T00:14:20;3.72;;;2.70;;
11935;SDS011;6027;48.576;9.180;2023-04-25T00:16:45;3.80;;;2.65;;
11935;SDS011;6027;48.576;9.180;2023-04-25T00:19:11;2.80;;;2.60;;
11935;SDS011;6027;48.576;9.180;2023-04-25T00:21:36;3.17;;;2.78;;
11935;SDS011;6027;48.576;9.180;2023-04-25T00:24:06;3.83;;;2.55;;
11935;SDS011;6027;48.576;9.180;2023-04-25T00:26:33;3.63;;;2.65;;
11935;SDS011;6027;48.576;9.180;2023-04-25T00:28:58;3.33;;;2.50;;
11935;SDS011;6027;48.576;9.180;2023-04-25T00:31:24;3.28;;;2.72;;
11935;SDS011;6027;48.576;9.180;2023-04-25T00:33:49;3.30;;;2.70;;
11935;SDS011;6027;48.576;9.180;2023-04-25T00:36:15;6.15;;;2.28;;
11935;SDS011;6027;48.576;9.180;2023-04-25T00:38:40;4.05;;;2.47;;
11935;SDS011;6027;48.576;9.180;2023-04-25T00:41:07;2.88;;;2.67;;
11935;SDS011;6027;48.576;9.180;2023-04-25T00:43:32;2.78;;;2.58;;
11935;SDS011;6027;48.576;9.180;2023-04-25T00:45:59;4.90;;;3.10;;
11935;SDS011;6027;48.576;9.180;2023-04-25T00:48:25;3.22;;;2.60;;
11935;SDS011;6027;48.576;9.180;2023-04-25T00:50:55;3.58;;;2.53;;
11935;SDS011;6027;48.576;9.180;2023-04-25T00:53:22;4.18;;;2.80;;
11935;SDS011;6027;48.576;9.180;2023-04-25T00:55:49;3.42;;;3.08;;
11935;SDS011;6027;48.576;9.180;2023-04-25T00:58:19;3.22;;;2.70;;
11935;SDS011;6027;48.576;9.180;2023-04-25T01:00:47;3.40;;;3.10;;
11935;SDS011;6027;48.576;9.180;2023-04-25T01:03:14;2.97;;;2.47;;
11935;SDS011;6027;48.576;9.180;2023-04-25T01:05:41;5.45;;;2.78;;
11935;SDS011;6027;48.576;9.180;2023-04-25T01:08:07;5.72;;;2.63;;
11935;SDS011;6027;48.576;9.180;2023-04-25T01:10:32;3.33;;;2.78;;
11935;SDS011;6027;48.576;9.180;2023-04-25T01:12:58;4.35;;;2.95;;
11935;SDS011;6027;48.576;9.180;2023-04-25T01:15:23;4.90;;;2.97;;
11935;SDS011;6027;48.576;9.180;2023-04-25T01:17:49;3.03;;;2.70;;
11935;SDS011;6027;48.576;9.180;2023-04-25T01:20:14;2.95;;;2.65;;
11935;SDS011;6027;48.576;9.180;2023-04-25T01:22:41;4.95;;;3.13;;
11935;SDS011;6027;48.576;9.180;2023-04-25T01:25:07;3.78;;;2.83;;
11935;SDS011;6027;48.576;9.180;2023-04-25T01:27:35;3.67;;;2.33;;
11935;SDS011;6027;48.576;9.180;2023-04-25T01:32:31;4.07;;;2.80;;
11935;SDS011;6027;48.576;9.180;2023-04-25T01:35:10;3.90;;;2.75;;
11935;SDS011;6027;48.576;9.180;2023-04-25T01:37:37;2.55;;;2.35;;
11935;SDS011;6027;48.576;9.180;2023-04-25T01:40:03;2.47;;;2.28;;
11935;SDS011;6027;48.576;9.180;2023-04-25T01:42:30;2.67;;;2.47;;
11935;SDS011;6027;48.576;9.180;2023-04-25T01:44:57;2.97;;;2.45;;
11935;SDS011;6027;48.576;9.180;2023-04-25T01:47:22;3.03;;;2.20;;
11935;SDS011;6027;48.576;9.180;2023-04-25T01:49:48;3.00;;;2.50;;
11935;SDS011;6027;48.576;9.180;2023-04-25T01:52:13;2.83;;;2.63;;
11935;SDS011;6027;48.576;9.180;2023-04-25T01:54:39;4.05;;;2.90;;
11935;SDS011;6027;48.576;9.180;2023-04-25T01:57:09;6.07;;;2.87;;
11935;SDS011;6027;48.576;9.180;2023-04-25T01:59:35;4.80;;;2.70;;
11935;SDS011;6027;48.576;9.180;2023-04-25T02:02:00;3.83;;;2.53;;
11935;SDS011;6027;48.576;9.180;2023-04-25T02:04:28;3.03;;;2.60;;
11935;SDS011;6027;48.576;9.180;2023-04-25T02:06:54;4.80;;;2.40;;
11935;SDS011;6027;48.576;9.180;2023-04-25T02:09:20;3.83;;;2.63;;
11935;SDS011;6027;48.576;9.180;2023-04-25T02:11:45;3.77;;;2.70;;
11935;SDS011;6027;48.576;9.180;2023-04-25T02:14:11;5.80;;;2.47;;
11935;SDS011;6027;48.576;9.180;2023-04-25T02:16:36;6.67;;;2.90;;
11935;SDS011;6027;48.576;9.180;2023-04-25T02:19:02;5.03;;;2.50;;
11935;SDS011;6027;48.576;9.180;2023-04-25T02:21:28;3.67;;;2.50;;
11935;SDS011;6027;48.576;9.180;2023-04-25T02:23:53;4.30;;;2.50;;
11935;SDS011;6027;48.576;9.180;2023-04-25T02:26:19;4.07;;;2.50;;
11935;SDS011;6027;48.576;9.180;2023-04-25T02:28:44;2.80;;;2.50;;
11935;SDS011;6027;48.576;9.180;2023-04-25T02:31:10;5.20;;;3.00;;
11935;SDS011;6027;48.576;9.180;2023-04-25T02:33:35;2.87;;;2.57;;
11935;SDS011;6027;48.576;9.180;2023-04-25T02:36:00;5.10;;;2.97;;
11935;SDS011;6027;48.576;9.180;2023-04-25T02:38:26;2.78;;;2.50;;
11935;SDS011;6027;48.576;9.180;2023-04-25T02:40:51;4.57;;;2.30;;
11935;SDS011;6027;48.576;9.180;2023-04-25T02:43:16;6.47;;;2.73;;
11935;SDS011;6027;48.576;9.180;2023-04-25T02:45:42;3.20;;;2.60;;
11935;SDS011;6027;48.576;9.180;2023-04-25T02:48:08;3.03;;;2.73;;
11935;SDS011;6027;48.576;9.180;2023-04-25T02:50:33;5.38;;;2.83;;
11935;SDS011;6027;48.576;9.180;2023-04-25T02:52:58;2.67;;;2.20;;
11935;SDS011;6027;48.576;9.180;2023-04-25T02:55:24;3.45;;;2.70;;
11935;SDS011;6027;48.576;9.180;2023-04-25T02:57:49;4.27;;;2.70;;
11935;SDS011;6027;48.576;9.180;2023-04-25T03:00:15;3.45;;;3.10;;
11935;SDS011;6027;48.576;9.180;2023-04-25T03:02:41;4.67;;;3.20;;
11935;SDS011;6027;48.576;9.180;2023-04-25T03:05:26;4.50;;;2.77;;
11935;SDS011;6027;48.576;9.180;2023-04-25T03:08:11;4.03;;;2.80;;
11935;SDS011;6027;48.576;9.180;2023-04-25T03:10:57;4.43;;;3.43;;
11935;SDS011;6027;48.576;9.180;2023-04-25T03:13:43;5.77;;;3.70;;
11935;SDS011;6027;48.576;9.180;2023-04-25T03:16:28;4.10;;;3.70;;
11935;SDS011;6027;48.576;9.180;2023-04-25T03:19:14;4.47;;;3.80;;
11935;SDS011;6027;48.576;9.180;2023-04-25T03:22:01;4.93;;;4.10;;
11935;SDS011;6027;48.576;9.180;2023-04-25T03:24:47;4.63;;;4.23;;
11935;SDS011;6027;48.576;9.180;2023-04-25T03:27:32;4.43;;;3.70;;
11935;SDS011;6027;48.576;9.180;2023-04-25T03:30:18;3.90;;;3.60;;
11935;SDS011;6027;48.576;9.180;2023-04-25T03:33:03;5.60;;;3.60;;
11935;SDS011;6027;48.576;9.180;2023-04-25T03:35:49;3.60;;;2.77;;
11935;SDS011;6027;48.576;9.180;2023-04-25T03:38:35;5.57;;;3.60;;
11935;SDS011;6027;48.576;9.180;2023-04-25T03:41:20;5.67;;;3.63;;
11935;SDS011;6027;48.576;9.180;2023-04-25T03:44:05;3.93;;;3.53;;
11935;SDS011;6027;48.576;9.180;2023-04-25T03:46:51;4.37;;;3.77;;
11935;SDS011;6027;48.576;9.180;2023-04-25T03:49:36;5.37;;;3.67;;
11935;SDS011;6027;48.576;9.180;2023-04-25T03:52:22;3.77;;;3.50;;
11935;SDS011;6027;48.576;9.180;2023-04-25T03:55:07;3.83;;;3.30;;
11935;SDS011;6027;48.576;9.180;2023-04-25T03:57:53;3.90;;;3.33;;
11935;SDS011;6027;48.576;9.180;2023-04-25T04:00:39;3.63;;;3.33;;
11935;SDS011;6027;48.576;9.180;2023-04-25T04:03:24;5.03;;;3.90;;
11935;SDS011;6027;48.576;9.180;2023-04-25T04:06:10;5.00;;;3.50;;
11935;SDS011;6027;48.576;9.180;2023-04-25T04:08:55;4.90;;;3.57;;
11935;SDS011;6027;48.576;9.180;2023-04-25T04:11:21;6.47;;;3.90;;
11935;SDS011;6027;48.576;9.180;2023-04-25T04:13:47;5.17;;;3.70;;
11935;SDS011;6027;48.576;9.180;2023-04-25T04:16:12;4.97;;;4.10;;
11935;SDS011;6027;48.576;9.180;2023-04-25T04:18:38;10.50;;;8.80;;
11935;SDS011;6027;48.576;9.180;2023-04-25T04:21:03;4.60;;;4.13;;
11935;SDS011;6027;48.576;9.180;2023-04-25T04:23:29;4.50;;;3.83;;
11935;SDS011;6027;48.576;9.180;2023-04-25T04:25:54;9.90;;;7.23;;
11935;SDS011;6027;48.576;9.180;2023-04-25T04:28:21;9.63;;;6.50;;
11935;SDS011;6027;48.576;9.180;2023-04-25T04:30:46;4.03;;;3.57;;
11935;SDS011;6027;48.576;9.180;2023-04-25T04:33:12;4.53;;;3.27;;
11935;SDS011;6027;48.576;9.180;2023-04-25T04:35:40;3.90;;;3.37;;
11935;SDS011;6027;48.576;9.180;2023-04-25T04:38:06;5.40;;;3.70;;
11935;SDS011;6027;48.576;9.180;2023-04-25T04:40:35;3.83;;;3.33;;
11935;SDS011;6027;48.576;9.180;2023-04-25T04:43:00;4.07;;;3.27;;
11935;SDS011;6027;48.576;9.180;2023-04-25T04:45:26;3.67;;;3.37;;
11935;SDS011;6027;48.576;9.180;2023-04-25T04:47:52;6.10;;;3.67;;
11935;SDS011;6027;48.576;9.180;2023-04-25T04:50:20;5.07;;;3.20;;
11935;SDS011;6027;48.576;9.180;2023-04-25T04:52:46;3.87;;;2.93;;
11935;SDS011;6027;48.576;9.180;2023-04-25T04:55:11;4.93;;;2.80;;
11935;SDS011;6027;48.576;9.180;2023-04-25T04:57:36;4.47;;;2.93;;
11935;SDS011;6027;48.576;9.180;2023-04-25T05:00:05;3.87;;;2.90;;
11935;SDS011;6027;48.576;9.180;2023-04-25T05:02:35;4.37;;;3.27;;
11935;SDS011;6027;48.576;9.180;2023-04-25T05:05:01;4.30;;;3.13;;
11935;SDS011;6027;48.576;9.180;2023-04-25T05:07:27;5.80;;;3.10;;
11935;SDS011;6027;48.576;9.180;2023-04-25T05:10:01;4.17;;;2.70;;
11935;SDS011;6027;48.576;9.180;2023-04-25T05:12:27;3.00;;;2.70;;
11935;SDS011;6027;48.576;9.180;2023-04-25T05:14:57;2.93;;;2.67;;
11935;SDS011;6027;48.576;9.180;2023-04-25T05:17:23;4.37;;;3.10;;
11935;SDS011;6027;48.576;9.180;2023-04-25T05:19:48;4.73;;;2.93;;
11935;SDS011;6027;48.576;9.180;2023-04-25T05:22:13;6.23;;;3.20;;
11935;SDS011;6027;48.576;9.180;2023-04-25T05:24:39;3.73;;;3.30;;
11935;SDS011;6027;48.576;9.180;2023-04-25T05:27:05;4.67;;;4.10;;
11935;SDS011;6027;48.576;9.180;2023-04-25T05:29:31;4.10;;;3.50;;
11935;SDS011;6027;48.576;9.180;2023-04-25T05:31:56;4.03;;;3.73;;
11935;SDS011;6027;48.576;9.180;2023-04-25T05:34:22;5.00;;;3.37;;
11935;SDS011;6027;48.576;9.180;2023-04-25T05:36:47;4.33;;;3.53;;
11935;SDS011;6027;48.576;9.180;2023-04-25T05:39:15;5.43;;;3.03;;
11935;SDS011;6027;48.576;9.180;2023-04-25T05:41:42;5.10;;;3.30;;
11935;SDS011;6027;48.576;9.180;2023-04-25T05:44:07;3.80;;;3.40;;
11935;SDS011;6027;48.576;9.180;2023-04-25T05:46:33;5.57;;;3.50;;
11935;SDS011;6027;48.576;9.180;2023-04-25T05:48:58;4.60;;;3.43;;
11935;SDS011;6027;48.576;9.180;2023-04-25T05:51:24;6.67;;;3.37;;
11935;SDS011;6027;48.576;9.180;2023-04-25T05:53:49;5.77;;;3.20;;
11935;SDS011;6027;48.576;9.180;2023-04-25T05:56:14;4.78;;;3.03;;
11935;SDS011;6027;48.576;9.180;2023-04-25T05:58:40;5.63;;;3.40;;
11935;SDS011;6027;48.576;9.180;2023-04-25T06:01:06;3.20;;;2.93;;
11935;SDS011;6027;48.576;9.180;2023-04-25T06:03:31;3.17;;;2.87;;
11935;SDS011;6027;48.576;9.180;2023-04-25T06:05:56;5.83;;;3.10;;
11935;SDS011;6027;48.576;9.180;2023-04-25T06:08:22;4.47;;;2.67;;
11935;SDS011;6027;48.576;9.180;2023-04-25T06:10:47;4.17;;;2.60;;
11935;SDS011;6027;48.576;9.180;2023-04-25T06:13:13;3.27;;;2.90;;
11935;SDS011;6027;48.576;9.180;2023-04-25T06:15:38;4.70;;;3.00;;
11935;SDS011;6027;48.576;9.180;2023-04-25T06:18:03;2.97;;;2.63;;
11935;SDS011;6027;48.576;9.180;2023-04-25T06:20:29;3.80;;;2.65;;
11935;SDS011;6027;48.576;9.180;2023-04-25T06:22:54;4.50;;;2.43;;
11935;SDS011;6027;48.576;9.180;2023-04-25T06:25:20;4.13;;;2.90;;
11935;SDS011;6027;48.576;9.180;2023-04-25T06:27:46;3.85;;;2.60;;
11935;SDS011;6027;48.576;9.180;2023-04-25T06:30:11;5.85;;;2.40;;
11935;SDS011;6027;48.576;9.180;2023-04-25T06:32:37;3.57;;;2.30;;
11935;SDS011;6027;48.576;9.180;2023-04-25T06:35:03;3.83;;;2.50;;
11935;SDS011;6027;48.576;9.180;2023-04-25T06:37:29;3.67;;;1.80;;
11935;SDS011;6027;48.576;9.180;2023-04-25T06:39:55;5.40;;;2.67;;
11935;SDS011;6027;48.576;9.180;2023-04-25T06:42:21;4.00;;;2.22;;
11935;SDS011;6027;48.576;9.180;2023-04-25T06:44:46;3.75;;;2.63;;
11935;SDS011;6027;48.576;9.180;2023-04-25T06:47:11;3.85;;;2.88;;
11935;SDS011;6027;48.576;9.180;2023-04-25T06:49:37;4.03;;;2.60;;
11935;SDS011;6027;48.576;9.180;2023-04-25T06:52:02;4.20;;;2.45;;
11935;SDS011;6027;48.576;9.180;2023-04-25T06:54:28;3.50;;;2.10;;
11935;SDS011;6027;48.576;9.180;2023-04-25T06:56:55;4.22;;;2.70;;
11935;SDS011;6027;48.576;9.180;2023-04-25T06:59:20;2.83;;;2.10;;
11935;SDS011;6027;48.576;9.180;2023-04-25T07:01:46;4.07;;;2.23;;
11935;SDS011;6027;48.576;9.180;2023-04-25T07:04:11;3.15;;;1.90;;
11935;SDS011;6027;48.576;9.180;2023-04-25T07:06:37;4.70;;;2.25;;
11935;SDS011;6027;48.576;9.180;2023-04-25T07:09:07;3.70;;;2.90;;
11935;SDS011;6027;48.576;9.180;2023-04-25T07:11:36;4.70;;;3.10;;
11935;SDS011;6027;48.576;9.180;2023-04-25T07:14:02;4.05;;;3.05;;
11935;SDS011;6027;48.576;9.180;2023-04-25T07:16:27;4.65;;;2.88;;
11935;SDS011;6027;48.576;9.180;2023-04-25T07:18:53;4.40;;;3.03;;
11935;SDS011;6027;48.576;9.180;2023-04-25T07:21:18;4.82;;;3.00;;
11935;SDS011;6027;48.576;9.180;2023-04-25T07:23:44;5.17;;;3.40;;
11935;SDS011;6027;48.576;9.180;2023-04-25T07:26:09;4.30;;;3.03;;
11935;SDS011;6027;48.576;9.180;2023-04-25T07:28:35;3.60;;;2.87;;
11935;SDS011;6027;48.576;9.180;2023-04-25T07:31:00;3.83;;;2.97;;
11935;SDS011;6027;48.576;9.180;2023-04-25T07:33:25;5.40;;;3.57;;
11935;SDS011;6027;48.576;9.180;2023-04-25T07:35:51;4.50;;;3.60;;
11935;SDS011;6027;48.576;9.180;2023-04-25T07:38:17;4.37;;;3.57;;
11935;SDS011;6027;48.576;9.180;2023-04-25T07:40:42;4.35;;;3.40;;
11935;SDS011;6027;48.576;9.180;2023-04-25T07:43:08;3.23;;;2.73;;
11935;SDS011;6027;48.576;9.180;2023-04-25T07:45:33;4.33;;;3.23;;
11935;SDS011;6027;48.576;9.180;2023-04-25T07:47:59;3.97;;;3.20;;
11935;SDS011;6027;48.576;9.180;2023-04-25T07:50:25;5.90;;;5.00;;
11935;SDS011;6027;48.576;9.180;2023-04-25T07:52:50;11.77;;;7.57;;
11935;SDS011;6027;48.576;9.180;2023-04-25T07:55:15;5.83;;;4.20;;
11935;SDS011;6027;48.576;9.180;2023-04-25T07:57:41;11.23;;;10.02;;
11935;SDS011;6027;48.576;9.180;2023-04-25T08:00:07;8.32;;;7.53;;
11935;SDS011;6027;48.576;9.180;2023-04-25T08:02:34;4.43;;;4.03;;
11935;SDS011;6027;48.576;9.180;2023-04-25T08:05:00;4.60;;;3.17;;
11935;SDS011;6027;48.576;9.180;2023-04-25T08:07:25;3.43;;;3.13;;
11935;SDS011;6027;48.576;9.180;2023-04-25T08:09:51;4.25;;;3.35;;
11935;SDS011;6027;48.576;9.180;2023-04-25T08:12:17;5.05;;;3.15;;
11935;SDS011;6027;48.576;9.180;2023-04-25T08:14:42;4.10;;;3.70;;
11935;SDS011;6027;48.576;9.180;2023-04-25T08:17:09;4.75;;;3.97;;
11935;SDS011;6027;48.576;9.180;2023-04-25T08:19:34;3.15;;;2.85;;
11935;SDS011;6027;48.576;9.180;2023-04-25T08:22:00;2.70;;;2.40;;
11935;SDS011;6027;48.576;9.180;2023-04-25T08:24:25;2.80;;;2.60;;
11935;SDS011;6027;48.576;9.180;2023-04-25T08:26:51;3.10;;;2.90;;
11935;SDS011;6027;48.576;9.180;2023-04-25T08:29:16;3.33;;;3.03;;
11935;SDS011;6027;48.576;9.180;2023-04-25T08:31:42;3.00;;;2.80;;
11935;SDS011;6027;48.576;9.180;2023-04-25T08:34:08;3.83;;;3.33;;
11935;SDS011;6027;48.576;9.180;2023-04-25T08:36:34;5.65;;;3.70;;
11935;SDS011;6027;48.576;9.180;2023-04-25T08:38:59;3.38;;;3.08;;
11935;SDS011;6027;48.576;9.180;2023-04-25T08:41:25;3.70;;;3.40;;
11935;SDS011;6027;48.576;9.180;2023-04-25T08:43:52;3.70;;;3.40;;
11935;SDS011;6027;48.576;9.180;2023-04-25T08:46:18;7.40;;;6.80;;
11935;SDS011;6027;48.576;9.180;2023-04-25T08:48:45;6.22;;;5.63;;
11935;SDS011;6027;48.576;9.180;2023-04-25T08:51:32;4.00;;;3.60;;
11935;SDS011;6027;48.576;9.180;2023-04-25T08:53:59;4.80;;;4.30;;
11935;SDS011;6027;48.576;9.180;2023-04-25T08:56:33;5.75;;;4.38;;
11935;SDS011;6027;48.576;9.180;2023-04-25T08:59:00;5.82;;;4.72;;
11935;SDS011;6027;48.576;9.180;2023-04-25T09:01:27;5.78;;;5.18;;
11935;SDS011;6027;48.576;9.180;2023-04-25T09:03:52;5.93;;;4.78;;
11935;SDS011;6027;48.576;9.180;2023-04-25T09:06:19;4.95;;;4.45;;
11935;SDS011;6027;48.576;9.180;2023-04-25T09:08:44;5.22;;;4.72;;
11935;SDS011;6027;48.576;9.180;2023-04-25T09:11:12;4.88;;;4.45;;
11935;SDS011;6027;48.576;9.180;2023-04-25T09:13:37;6.23;;;5.17;;
11935;SDS011;6027;48.576;9.180;2023-04-25T09:16:03;4.80;;;4.35;;
11935;SDS011;6027;48.576;9.180;2023-04-25T09:18:30;6.43;;;4.80;;
11935;SDS011;6027;48.576;9.180;2023-04-25T09:21:08;5.32;;;4.45;;
11935;SDS011;6027;48.576;9.180;2023-04-25T09:23:43;4.90;;;4.50;;
11935;SDS011;6027;48.576;9.180;2023-04-25T09:26:09;6.17;;;4.60;;
11935;SDS011;6027;48.576;9.180;2023-04-25T09:28:38;4.93;;;4.40;;
11935;SDS011;6027;48.576;9.180;2023-04-25T09:31:04;4.90;;;4.50;;
11935;SDS011;6027;48.576;9.180;2023-04-25T09:33:30;4.97;;;4.50;;
11935;SDS011;6027;48.576;9.180;2023-04-25T09:36:04;5.90;;;5.40;;
11935;SDS011;6027;48.576;9.180;2023-04-25T09:38:32;5.03;;;4.53;;
11935;SDS011;6027;48.576;9.180;2023-04-25T09:41:05;8.47;;;7.67;;
11935;SDS011;6027;48.576;9.180;2023-04-25T09:43:31;5.33;;;4.83;;
11935;SDS011;6027;48.576;9.180;2023-04-25T09:45:56;7.63;;;6.13;;
11935;SDS011;6027;48.576;9.180;2023-04-25T09:48:24;5.53;;;5.13;;
11935;SDS011;6027;48.576;9.180;2023-04-25T09:51:04;5.13;;;4.73;;
11935;SDS011;6027;48.576;9.180;2023-04-25T09:53:31;3.77;;;3.47;;
11935;SDS011;6027;48.576;9.180;2023-04-25T09:56:03;3.60;;;3.30;;
11935;SDS011;6027;48.576;9.180;2023-04-25T09:58:30;4.53;;;4.13;;
11935;SDS011;6027;48.576;9.180;2023-04-25T10:00:58;4.57;;;4.17;;
11935;SDS011;6027;48.576;9.180;2023-04-25T10:03:26;3.87;;;3.57;;
11935;SDS011;6027;48.576;9.180;2023-04-25T10:05:55;4.30;;;4.00;;
11935;SDS011;6027;48.576;9.180;2023-04-25T10:08:24;4.17;;;3.73;;
11935;SDS011;6027;48.576;9.180;2023-04-25T10:10:51;3.83;;;3.53;;
11935;SDS011;6027;48.576;9.180;2023-04-25T10:13:17;4.60;;;4.20;;
11935;SDS011;6027;48.576;9.180;2023-04-25T10:15:43;3.80;;;3.50;;
11935;SDS011;6027;48.576;9.180;2023-04-25T10:18:10;4.00;;;3.70;;
11935;SDS011;6027;48.576;9.180;2023-04-25T10:20:36;3.13;;;2.93;;
11935;SDS011;6027;48.576;9.180;2023-04-25T10:23:11;3.37;;;3.17;;
11935;SDS011;6027;48.576;9.180;2023-04-25T10:25:39;3.00;;;2.80;;
11935;SDS011;6027;48.576;9.180;2023-04-25T10:28:05;2.80;;;2.60;;
11935;SDS011;6027;48.576;9.180;2023-04-25T10:30:31;3.60;;;3.40;;
11935;SDS011;6027;48.576;9.180;2023-04-25T10:32:58;3.60;;;3.30;;
11935;SDS011;6027;48.576;9.180;2023-04-25T10:35:28;2.40;;;2.20;;
11935;SDS011;6027;48.576;9.180;2023-04-25T10:38:10;2.27;;;2.17;;
11935;SDS011;6027;48.576;9.180;2023-04-25T10:40:38;1.73;;;1.63;;
11935;SDS011;6027;48.576;9.180;2023-04-25T10:51:23;1.30;;;1.20;;
11935;SDS011;6027;48.576;9.180;2023-04-25T10:56:26;1.43;;;1.33;;
11935;SDS011;6027;48.576;9.180;2023-04-25T10:59:10;1.20;;;1.20;;
11935;SDS011;6027;48.576;9.180;2023-04-25T11:01:44;1.80;;;1.23;;
11935;SDS011;6027;48.576;9.180;2023-04-25T11:04:29;1.30;;;1.20;;
11935;SDS011;6027;48.576;9.180;2023-04-25T11:09:27;1.60;;;1.50;;
11935;SDS011;6027;48.576;9.180;2023-04-25T11:11:57;1.20;;;1.20;;
11935;SDS011;6027;48.576;9.180;2023-04-25T11:14:25;1.80;;;1.70;;
11935;SDS011;6027;48.576;9.180;2023-04-25T11:16:55;1.53;;;1.43;;
11935;SDS011;6027;48.576;9.180;2023-04-25T11:19:21;1.80;;;1.70;;
11935;SDS011;6027;48.576;9.180;2023-04-25T11:21:47;2.30;;;2.10;;
11935;SDS011;6027;48.576;9.180;2023-04-25T11:24:13;2.23;;;2.10;;
11935;SDS011;6027;48.576;9.180;2023-04-25T11:26:38;3.83;;;2.33;;
11935;SDS011;6027;48.576;9.180;2023-04-25T11:29:06;2.67;;;2.47;;
11935;SDS011;6027;48.576;9.180;2023-04-25T11:31:32;2.20;;;2.00;;
11935;SDS011;6027;48.576;9.180;2023-04-25T11:33:57;2.13;;;2.03;;
11935;SDS011;6027;48.576;9.180;2023-04-25T11:36:24;3.20;;;2.30;;
11935;SDS011;6027;48.576;9.180;2023-04-25T11:38:51;2.23;;;1.77;;
11935;SDS011;6027;48.576;9.180;2023-04-25T11:41:17;3.47;;;2.03;;
11935;SDS011;6027;48.576;9.180;2023-04-25T11:43:43;2.23;;;1.90;;
11935;SDS011;6027;48.576;9.180;2023-04-25T11:46:09;1.80;;;1.70;;
11935;SDS011;6027;48.576;9.180;2023-04-25T11:48:38;2.33;;;1.50;;
11935;SDS011;6027;48.576;9.180;2023-04-25T11:51:05;1.57;;;1.23;;
11935;SDS011;6027;48.576;9.180;2023-04-25T11:53:30;1.50;;;1.33;;
11935;SDS011;6027;48.576;9.180;2023-04-25T11:55:56;1.70;;;1.53;;
11935;SDS011;6027;48.576;9.180;2023-04-25T11:58:21;1.60;;;1.50;;
11935;SDS011;6027;48.576;9.180;2023-04-25T12:00:46;1.70;;;1.60;;
11935;SDS011;6027;48.576;9.180;2023-04-25T12:03:12;1.63;;;1.53;;
11935;SDS011;6027;48.576;9.180;2023-04-25T12:05:38;1.63;;;1.53;;
11935;SDS011;6027;48.576;9.180;2023-04-25T12:10:37;1.70;;;1.60;;
11935;SDS011;6027;48.576;9.180;2023-04-25T12:13:17;1.53;;;1.43;;
11935;SDS011;6027;48.576;9.180;2023-04-25T12:15:45;2.07;;;1.87;;
11935;SDS011;6027;48.576;9.180;2023-04-25T12:18:10;1.60;;;1.47;;
11935;SDS011;6027;48.576;9.180;2023-04-25T12:20:35;1.93;;;1.83;;
11935;SDS011;6027;48.576;9.180;2023-04-25T12:23:01;2.03;;;1.80;;
11935;SDS011;6027;48.576;9.180;2023-04-25T12:28:09;2.43;;;1.87;;
11935;SDS011;6027;48.576;9.180;2023-04-25T12:30:51;1.90;;;1.80;;
11935;SDS011;6027;48.576;9.180;2023-04-25T12:33:20;1.70;;;1.60;;
11935;SDS011;6027;48.576;9.180;2023-04-25T12:35:46;2.10;;;2.00;;
11935;SDS011;6027;48.576;9.180;2023-04-25T12:38:20;2.00;;;1.80;;
11935;SDS011;6027;48.576;9.180;2023-04-25T12:40:46;2.00;;;1.90;;
11935;SDS011;6027;48.576;9.180;2023-04-25T12:43:11;2.07;;;1.80;;
11935;SDS011;6027;48.576;9.180;2023-04-25T12:45:37;2.03;;;1.93;;
11935;SDS011;6027;48.576;9.180;2023-04-25T12:48:03;2.50;;;2.30;;
11935;SDS011;6027;48.576;9.180;2023-04-25T12:50:28;1.90;;;1.80;;
11935;SDS011;6027;48.576;9.180;2023-04-25T12:52:53;1.93;;;1.83;;
11935;SDS011;6027;48.576;9.180;2023-04-25T12:55:19;2.43;;;1.87;;
11935;SDS011;6027;48.576;9.180;2023-04-25T12:57:44;2.00;;;1.90;;
11935;SDS011;6027;48.576;9.180;2023-04-25T13:00:10;2.00;;;1.80;;
11935;SDS011;6027;48.576;9.180;2023-04-25T13:02:39;1.80;;;1.70;;
11935;SDS011;6027;48.576;9.180;2023-04-25T13:05:05;2.20;;;2.03;;
11935;SDS011;6027;48.576;9.180;2023-04-25T13:07:30;2.07;;;1.93;;
11935;SDS011;6027;48.576;9.180;2023-04-25T13:09:56;1.87;;;1.77;;
11935;SDS011;6027;48.576;9.180;2023-04-25T13:12:21;1.70;;;1.60;;
11935;SDS011;6027;48.576;9.180;2023-04-25T13:14:47;2.15;;;1.70;;
11935;SDS011;6027;48.576;9.180;2023-04-25T13:17:12;2.40;;;2.20;;
11935;SDS011;6027;48.576;9.180;2023-04-25T13:19:37;1.98;;;1.88;;
11935;SDS011;6027;48.576;9.180;2023-04-25T13:22:03;2.10;;;1.90;;
11935;SDS011;6027;48.576;9.180;2023-04-25T13:24:29;2.17;;;2.03;;
11935;SDS011;6027;48.576;9.180;2023-04-25T13:26:58;2.57;;;2.37;;
11935;SDS011;6027;48.576;9.180;2023-04-25T13:29:23;2.10;;;1.90;;
11935;SDS011;6027;48.576;9.180;2023-04-25T13:31:49;2.30;;;2.10;;
11935;SDS011;6027;48.576;9.180;2023-04-25T13:34:15;2.00;;;1.90;;
11935;SDS011;6027;48.576;9.180;2023-04-25T13:36:40;2.00;;;1.90;;
11935;SDS011;6027;48.576;9.180;2023-04-25T13:39:06;1.77;;;1.67;;
11935;SDS011;6027;48.576;9.180;2023-04-25T13:41:31;1.90;;;1.80;;
11935;SDS011;6027;48.576;9.180;2023-04-25T13:43:57;3.10;;;2.80;;
11935;SDS011;6027;48.576;9.180;2023-04-25T13:46:22;2.60;;;2.40;;
11935;SDS011;6027;48.576;9.180;2023-04-25T13:48:48;2.40;;;2.20;;
11935;SDS011;6027;48.576;9.180;2023-04-25T13:51:14;2.38;;;2.10;;
11935;SDS011;6027;48.576;9.180;2023-04-25T13:53:41;2.55;;;2.35;;
11935;SDS011;6027;48.576;9.180;2023-04-25T13:56:06;3.67;;;2.45;;
11935;SDS011;6027;48.576;9.180;2023-04-25T13:58:32;4.38;;;3.58;;
11935;SDS011;6027;48.576;9.180;2023-04-25T14:00:58;2.67;;;2.47;;
11935;SDS011;6027;48.576;9.180;2023-04-25T14:03:23;2.90;;;2.55;;
11935;SDS011;6027;48.576;9.180;2023-04-25T14:05:49;3.20;;;2.90;;
11935;SDS011;6027;48.576;9.180;2023-04-25T14:08:14;3.20;;;2.90;;
11935;SDS011;6027;48.576;9.180;2023-04-25T14:10:39;2.95;;;2.75;;
11935;SDS011;6027;48.576;9.180;2023-04-25T14:13:05;3.75;;;2.67;;
11935;SDS011;6027;48.576;9.180;2023-04-25T14:15:31;3.15;;;2.58;;
11935;SDS011;6027;48.576;9.180;2023-04-25T14:17:57;2.63;;;2.40;;
11935;SDS011;6027;48.576;9.180;2023-04-25T14:20:22;2.92;;;2.58;;
11935;SDS011;6027;48.576;9.180;2023-04-25T14:22:49;3.22;;;2.92;;
11935;SDS011;6027;48.576;9.180;2023-04-25T14:25:14;2.97;;;2.58;;
11935;SDS011;6027;48.576;9.180;2023-04-25T14:27:40;2.97;;;2.60;;
11935;SDS011;6027;48.576;9.180;2023-04-25T14:30:05;2.70;;;2.50;;
11935;SDS011;6027;48.576;9.180;2023-04-25T14:32:31;4.25;;;3.85;;
11935;SDS011;6027;48.576;9.180;2023-04-25T14:34:57;4.90;;;4.30;;
11935;SDS011;6027;48.576;9.180;2023-04-25T14:37:22;4.82;;;4.43;;
11935;SDS011;6027;48.576;9.180;2023-04-25T14:39:48;7.32;;;4.50;;
11935;SDS011;6027;48.576;9.180;2023-04-25T14:42:14;4.70;;;4.35;;
11935;SDS011;6027;48.576;9.180;2023-04-25T14:44:39;3.65;;;3.30;;
11935;SDS011;6027;48.576;9.180;2023-04-25T14:47:08;5.93;;;3.00;;
11935;SDS011;6027;48.576;9.180;2023-04-25T14:49:34;3.55;;;3.25;;
11935;SDS011;6027;48.576;9.180;2023-04-25T14:51:59;4.47;;;4.07;;
11935;SDS011;6027;48.576;9.180;2023-04-25T14:54:26;4.55;;;4.05;;
11935;SDS011;6027;48.576;9.180;2023-04-25T14:56:51;3.97;;;3.65;;
11935;SDS011;6027;48.576;9.180;2023-04-25T14:59:17;4.00;;;3.53;;
11935;SDS011;6027;48.576;9.180;2023-04-25T15:01:42;4.38;;;3.97;;
11935;SDS011;6027;48.576;9.180;2023-04-25T15:04:08;4.80;;;3.50;;
11935;SDS011;6027;48.576;9.180;2023-04-25T15:06:35;4.43;;;4.03;;
11935;SDS011;6027;48.576;9.180;2023-04-25T15:09:01;4.47;;;4.07;;
11935;SDS011;6027;48.576;9.180;2023-04-25T15:11:26;4.68;;;3.53;;
11935;SDS011;6027;48.576;9.180;2023-04-25T15:13:52;4.10;;;3.65;;
11935;SDS011;6027;48.576;9.180;2023-04-25T15:16:17;3.85;;;3.55;;
11935;SDS011;6027;48.576;9.180;2023-04-25T15:18:42;4.60;;;4.20;;
11935;SDS011;6027;48.576;9.180;2023-04-25T15:21:08;4.65;;;3.95;;
11935;SDS011;6027;48.576;9.180;2023-04-25T15:23:33;4.38;;;3.90;;
11935;SDS011;6027;48.576;9.180;2023-04-25T15:25:59;4.32;;;3.92;;